createdAt,value
2022-07-31T00:01:21.268Z,94904.94
2022-07-31T00:04:25.038Z,94902.03
2022-07-31T00:07:28.067Z,94897.72
2022-07-31T00:10:31.258Z,94894.84
2022-07-31T00:13:56.380Z,94898.66
2022-07-31T00:16:58.698Z,94900.72
2022-07-31T00:20:01.953Z,94889.63
2022-07-31T00:23:06.023Z,94898.91
2022-07-31T00:26:09.538Z,94907.75
2022-07-31T00:29:16.109Z,94906.84
2022-07-31T00:32:19.484Z,94911.72
2022-07-31T00:35:22.721Z,94923.69
2022-07-31T00:38:27.625Z,94923.03
2022-07-31T00:41:39.491Z,94925.06
2022-07-31T00:44:43.984Z,94919.38
2022-07-31T00:47:51.091Z,94924.34
2022-07-31T00:50:58.938Z,94928.19
2022-07-31T00:54:01.985Z,94923.38
2022-07-31T00:57:05.966Z,94919.25
2022-07-31T01:00:13.706Z,94926.28
2022-07-31T01:03:18.689Z,94928.19
2022-07-31T01:06:21.835Z,94929.28
2022-07-31T01:09:24.910Z,94932.06
2022-07-31T01:12:32.774Z,94921.78
2022-07-31T01:15:39.161Z,94943.50
2022-07-31T01:18:44.363Z,94940.19
2022-07-31T01:21:59.546Z,94938.81
2022-07-31T01:25:11.125Z,94938.19
2022-07-31T01:28:25.939Z,94936.59
2022-07-31T01:31:37.083Z,94925.38
2022-07-31T01:34:45.901Z,94932.81
2022-07-31T01:37:54.966Z,94929.31
2022-07-31T01:41:00.689Z,94936.34
2022-07-31T01:44:05.434Z,94929.28
2022-07-31T01:47:11.445Z,94932.75
2022-07-31T01:50:42.660Z,94936.56
2022-07-31T01:53:41.109Z,94925.97
2022-07-31T01:56:45.864Z,94924.50
2022-07-31T01:59:50.814Z,94918.59
2022-07-31T02:03:07.691Z,94912.97
2022-07-31T02:06:14.075Z,94911.28
2022-07-31T02:09:20.549Z,94919.31
2022-07-31T02:12:31.914Z,94921.41
2022-07-31T02:15:37.480Z,94932.84
2022-07-31T02:18:42.932Z,94929.97
2022-07-31T02:21:46.442Z,94923.41
2022-07-31T02:24:49.626Z,94931.66
2022-07-31T02:27:58.539Z,94932.06
2022-07-31T02:31:02.785Z,94924.94
2022-07-31T02:34:07.333Z,94934.66
2022-07-31T02:37:11.470Z,94930.41
2022-07-31T02:40:16.161Z,94931.59
2022-07-31T02:43:20.009Z,94929.69
2022-07-31T02:46:23.996Z,94940.13
2022-07-31T02:49:28.856Z,94934.56
2022-07-31T02:52:32.356Z,94939.94
2022-07-31T02:55:35.950Z,94936.41
2022-07-31T02:58:42.066Z,94935.09
2022-07-31T03:01:45.248Z,94934.34
2022-07-31T03:04:49.970Z,94935.66
2022-07-31T03:07:53.089Z,94935.94
2022-07-31T03:10:56.173Z,94938.28
2022-07-31T03:14:01.955Z,94935.31
2022-07-31T03:17:07.000Z,94937.53
2022-07-31T03:20:12.884Z,94943.44
2022-07-31T03:23:16.039Z,94943.31
2022-07-31T03:26:19.726Z,94940.50
2022-07-31T03:29:41.831Z,94939.66
2022-07-31T03:32:45.919Z,94942.09
2022-07-31T03:35:50.443Z,94950.44
2022-07-31T03:38:53.536Z,94955.03
2022-07-31T03:41:58.495Z,94960.75
2022-07-31T03:45:03.103Z,94959.91
2022-07-31T03:48:08.577Z,94957.13
2022-07-31T03:51:13.644Z,94964.88
2022-07-31T03:54:16.865Z,94967.41
2022-07-31T03:57:21.650Z,94969.75
2022-07-31T04:00:30.634Z,94963.25
2022-07-31T04:03:34.442Z,94964.31
2022-07-31T04:06:38.896Z,94969.56
2022-07-31T04:09:42.920Z,94970.91
2022-07-31T04:12:45.954Z,94968.78
2022-07-31T04:15:49.030Z,94974.91
2022-07-31T04:18:52.102Z,94967.50
2022-07-31T04:21:56.575Z,94964.22
2022-07-31T04:24:59.669Z,94972.06
2022-07-31T04:28:03.143Z,94971.81
2022-07-31T04:31:06.221Z,94973.72
2022-07-31T04:34:10.703Z,94974.38
2022-07-31T04:37:16.336Z,94968.66
2022-07-31T04:40:19.413Z,94969.09
2022-07-31T04:43:22.503Z,94964.19
2022-07-31T04:46:25.604Z,94961.78
2022-07-31T04:49:28.749Z,94968.06
2022-07-31T04:52:35.103Z,94957.53
2022-07-31T04:55:38.202Z,94964.81
2022-07-31T04:58:41.217Z,94969.31
2022-07-31T05:01:45.527Z,94969.13
2022-07-31T05:04:52.471Z,94972.81
2022-07-31T05:08:02.303Z,94979.75
2022-07-31T05:11:23.661Z,94977.38
2022-07-31T05:14:27.286Z,94975.31
2022-07-31T05:17:30.379Z,94977.78
2022-07-31T05:20:33.407Z,94977.97
2022-07-31T05:23:37.949Z,94973.91
2022-07-31T05:26:41.003Z,94965.63
2022-07-31T05:29:44.132Z,94978.13
2022-07-31T05:32:47.180Z,94984.28
2022-07-31T05:35:50.258Z,94978.63
2022-07-31T05:38:54.741Z,94977.00
2022-07-31T05:41:58.095Z,94976.47
2022-07-31T05:45:01.150Z,94970.88
2022-07-31T05:48:04.544Z,94964.94
2022-07-31T05:51:10.245Z,94967.94
2022-07-31T05:54:14.841Z,94959.69
2022-07-31T05:57:33.724Z,94974.59
2022-07-31T06:00:37.959Z,94969.69
2022-07-31T06:03:51.904Z,94977.75
2022-07-31T06:06:55.688Z,94968.00
2022-07-31T06:10:00.825Z,94944.53
2022-07-31T06:13:04.043Z,94973.13
2022-07-31T06:16:13.836Z,94972.31
2022-07-31T06:19:17.081Z,94967.78
2022-07-31T06:22:20.103Z,94963.03
2022-07-31T06:25:30.162Z,94962.31
2022-07-31T06:28:47.832Z,94966.41
2022-07-31T06:31:52.132Z,94965.63
2022-07-31T06:34:55.289Z,94965.47
2022-07-31T06:37:58.354Z,94957.91
2022-07-31T06:41:02.785Z,94959.38
2022-07-31T06:44:05.994Z,94961.19
2022-07-31T06:47:13.877Z,94957.66
2022-07-31T06:50:19.471Z,94953.72
2022-07-31T06:53:22.553Z,94950.91
2022-07-31T06:56:26.996Z,94950.69
2022-07-31T06:59:39.317Z,94963.94
2022-07-31T07:02:43.744Z,94952.69
2022-07-31T07:05:46.822Z,94957.84
2022-07-31T07:08:50.061Z,94960.31
2022-07-31T07:11:55.023Z,94962.25
2022-07-31T07:14:58.218Z,94962.94
2022-07-31T07:18:01.378Z,94969.09
2022-07-31T07:21:05.593Z,94971.63
2022-07-31T07:24:10.285Z,94973.16
2022-07-31T07:27:14.718Z,94968.41
2022-07-31T07:30:17.833Z,94969.03
2022-07-31T07:33:41.215Z,94978.50
2022-07-31T07:36:43.979Z,94973.81
2022-07-31T07:39:47.051Z,94982.59
2022-07-31T07:42:51.522Z,94974.44
2022-07-31T07:45:54.691Z,94975.03
2022-07-31T07:48:57.846Z,94973.78
2022-07-31T07:52:00.972Z,94971.72
2022-07-31T07:55:05.005Z,94964.78
2022-07-31T07:58:12.069Z,94960.78
2022-07-31T08:01:16.190Z,94954.28
2022-07-31T08:04:19.347Z,94962.00
2022-07-31T08:07:42.527Z,94968.19
2022-07-31T08:10:46.110Z,94962.66
2022-07-31T08:13:51.363Z,94973.56
2022-07-31T08:16:54.608Z,94949.59
2022-07-31T08:19:57.913Z,94975.69
2022-07-31T08:23:00.991Z,94979.78
2022-07-31T08:26:06.542Z,94962.16
2022-07-31T08:29:11.180Z,94978.84
2022-07-31T08:32:15.470Z,94983.09
2022-07-31T08:35:20.755Z,94984.88
2022-07-31T08:38:23.870Z,94983.06
2022-07-31T08:41:27.068Z,94980.38
2022-07-31T08:44:31.602Z,94980.53
2022-07-31T08:47:36.464Z,94987.22
2022-07-31T08:50:41.463Z,94975.28
2022-07-31T08:53:45.681Z,94978.84
2022-07-31T08:56:52.455Z,94963.78
2022-07-31T08:59:57.597Z,94980.81
2022-07-31T09:03:00.775Z,94984.22
2022-07-31T09:06:03.836Z,94986.81
2022-07-31T09:09:07.283Z,94985.44
2022-07-31T09:12:10.914Z,94978.13
2022-07-31T09:15:26.156Z,94957.59
2022-07-31T09:18:29.229Z,94981.59
2022-07-31T09:21:40.393Z,94971.81
2022-07-31T09:24:43.522Z,94980.03
2022-07-31T09:27:47.586Z,94979.34
2022-07-31T09:30:57.102Z,94958.50
2022-07-31T09:34:00.731Z,94953.00
2022-07-31T09:37:13.261Z,94939.16
2022-07-31T09:40:21.106Z,94934.09
2022-07-31T09:43:25.716Z,94954.47
2022-07-31T09:46:40.242Z,94956.06
2022-07-31T09:49:43.372Z,94944.44
2022-07-31T09:52:46.558Z,94948.47
2022-07-31T09:55:52.723Z,94941.84
2022-07-31T09:58:55.911Z,94940.69
2022-07-31T10:02:01.324Z,94951.81
2022-07-31T10:05:06.207Z,94944.34
2022-07-31T10:08:11.614Z,94935.25
2022-07-31T10:11:20.387Z,94928.16
2022-07-31T10:14:29.407Z,94915.56
2022-07-31T10:17:37.692Z,94941.72
2022-07-31T10:20:45.557Z,94932.97
2022-07-31T10:23:49.296Z,94935.66
2022-07-31T10:27:07.867Z,94930.56
2022-07-31T10:30:13.675Z,94939.47
2022-07-31T10:33:42.607Z,94941.75
2022-07-31T10:36:45.086Z,94930.13
2022-07-31T10:39:54.805Z,94929.34
2022-07-31T10:43:13.051Z,94914.59
2022-07-31T10:46:16.243Z,94917.53
2022-07-31T10:49:20.823Z,94904.09
2022-07-31T10:52:31.330Z,94912.28
2022-07-31T10:55:35.399Z,94901.78
2022-07-31T10:58:49.153Z,94897.06
2022-07-31T11:01:54.934Z,94904.53
2022-07-31T11:05:11.274Z,94897.19
2022-07-31T11:08:14.434Z,94897.00
2022-07-31T11:11:17.624Z,94898.09
2022-07-31T11:14:32.942Z,94891.47
2022-07-31T11:18:22.055Z,94886.22
2022-07-31T11:21:17.364Z,94885.97
2022-07-31T11:24:25.708Z,94881.66
2022-07-31T11:27:32.290Z,94884.38
2022-07-31T11:30:35.816Z,94878.28
2022-07-31T11:33:43.001Z,94874.69
2022-07-31T11:36:51.192Z,94876.16
2022-07-31T11:39:57.059Z,94875.16
2022-07-31T11:46:27.187Z,94859.91
2022-07-31T11:49:39.206Z,94866.19
2022-07-31T11:53:03.649Z,94867.16
2022-07-31T11:56:07.018Z,94856.75
2022-07-31T11:59:45.367Z,94863.06
2022-07-31T12:02:33.338Z,94850.31
2022-07-31T12:05:45.597Z,94820.25
2022-07-31T12:08:51.115Z,94836.38
2022-07-31T12:11:54.339Z,94845.28
2022-07-31T12:14:57.653Z,94848.50
2022-07-31T12:18:05.173Z,94840.81
2022-07-31T12:21:08.302Z,94834.66
2022-07-31T12:24:14.197Z,94828.41
2022-07-31T12:27:18.633Z,94830.16
2022-07-31T12:30:29.627Z,94832.66
2022-07-31T12:33:42.151Z,94825.56
2022-07-31T12:36:45.310Z,94819.41
2022-07-31T12:40:00.631Z,94819.66
2022-07-31T12:43:04.376Z,94813.75
2022-07-31T12:46:07.605Z,94812.38
2022-07-31T12:49:10.852Z,94814.81
2022-07-31T12:52:14.075Z,94807.50
2022-07-31T12:55:18.830Z,94806.72
2022-07-31T12:58:21.957Z,94809.34
2022-07-31T13:01:25.127Z,94797.88
2022-07-31T13:04:28.295Z,94793.97
2022-07-31T13:07:31.463Z,94788.75
2022-07-31T13:10:36.074Z,94769.91
2022-07-31T13:13:39.157Z,94777.75
2022-07-31T13:16:42.327Z,94787.47
2022-07-31T13:19:45.400Z,94796.66
2022-07-31T13:22:48.461Z,94786.75
2022-07-31T13:25:53.022Z,94789.31
2022-07-31T13:28:56.127Z,94792.94
2022-07-31T13:31:59.180Z,94792.22
2022-07-31T13:35:27.880Z,94784.78
2022-07-31T13:38:25.308Z,94787.19
2022-07-31T13:41:31.134Z,94780.59
2022-07-31T13:44:34.525Z,94776.91
2022-07-31T13:47:50.564Z,94779.78
2022-07-31T13:50:54.264Z,94783.31
2022-07-31T13:54:00.977Z,94773.97
2022-07-31T13:57:06.573Z,94773.25
2022-07-31T14:00:11.155Z,94774.09
2022-07-31T14:03:17.051Z,94765.41
2022-07-31T14:06:22.247Z,94749.56
2022-07-31T14:09:26.335Z,94778.53
2022-07-31T14:12:30.777Z,94781.81
2022-07-31T14:15:33.845Z,94756.47
2022-07-31T14:18:36.871Z,94765.75
2022-07-31T14:21:39.930Z,94779.41
2022-07-31T14:24:59.730Z,94776.06
2022-07-31T14:28:04.521Z,94769.16
2022-07-31T14:31:07.678Z,94773.84
2022-07-31T14:34:10.774Z,94772.88
2022-07-31T14:37:13.838Z,94768.81
2022-07-31T14:40:17.748Z,94770.56
2022-07-31T14:43:22.249Z,94769.41
2022-07-31T14:46:25.326Z,94774.03
2022-07-31T14:50:08.617Z,94771.50
2022-07-31T14:52:51.645Z,94769.81
2022-07-31T14:55:54.698Z,94763.97
2022-07-31T14:59:08.292Z,94766.38
2022-07-31T15:02:12.051Z,94763.75
2022-07-31T15:06:50.796Z,94763.81
2022-07-31T15:08:39.243Z,94755.69
2022-07-31T15:11:58.413Z,94769.13
2022-07-31T15:15:06.053Z,94760.03
2022-07-31T15:18:09.147Z,94755.59
2022-07-31T15:21:16.458Z,94767.66
2022-07-31T15:24:19.581Z,94761.16
2022-07-31T15:27:24.211Z,94755.56
2022-07-31T15:30:28.992Z,94748.09
2022-07-31T15:33:32.182Z,94751.31
2022-07-31T15:36:35.260Z,94759.19
2022-07-31T15:39:38.651Z,94757.28
2022-07-31T15:42:43.712Z,94748.41
2022-07-31T15:45:48.361Z,94750.69
2022-07-31T15:48:52.243Z,94746.66
2022-07-31T15:51:55.386Z,94753.56
2022-07-31T15:54:58.487Z,94746.34
2022-07-31T15:58:01.620Z,94745.28
2022-07-31T16:01:06.166Z,94747.19
2022-07-31T16:04:14.138Z,94748.75
2022-07-31T16:08:29.796Z,94748.03
2022-07-31T16:10:43.448Z,94747.13
2022-07-31T16:13:46.577Z,94760.34
2022-07-31T16:16:51.582Z,94758.09
2022-07-31T16:19:59.817Z,94754.13
2022-07-31T16:23:03.290Z,94749.13
2022-07-31T16:26:07.214Z,94749.41
2022-07-31T16:29:17.265Z,94758.06
2022-07-31T16:32:22.168Z,94758.84
2022-07-31T16:35:26.407Z,94759.53
2022-07-31T16:38:29.599Z,94764.34
2022-07-31T16:41:32.689Z,94760.16
2022-07-31T16:44:37.274Z,94767.66
2022-07-31T16:47:50.925Z,94766.91
2022-07-31T16:50:55.191Z,94775.53
2022-07-31T16:54:10.637Z,94773.69
2022-07-31T16:57:19.278Z,94777.63
2022-07-31T17:00:22.612Z,94775.66
2022-07-31T17:03:58.546Z,94785.03
2022-07-31T17:06:50.173Z,94792.13
2022-07-31T17:09:53.328Z,94796.97
2022-07-31T17:12:56.494Z,94794.41
2022-07-31T17:15:59.634Z,94797.53
2022-07-31T17:19:05.731Z,94796.69
2022-07-31T17:22:11.298Z,94796.94
2022-07-31T17:25:14.751Z,94812.03
2022-07-31T17:28:17.905Z,94809.06
2022-07-31T17:31:21.214Z,94806.63
2022-07-31T17:34:25.780Z,94810.81
2022-07-31T17:37:30.226Z,94816.97
2022-07-31T17:40:43.371Z,94801.97
2022-07-31T17:43:50.508Z,94816.38
2022-07-31T17:46:57.805Z,94822.00
2022-07-31T17:50:02.697Z,94833.38
2022-07-31T17:53:06.019Z,94840.84
2022-07-31T17:56:12.657Z,94835.09
2022-07-31T17:59:16.215Z,94832.59
2022-07-31T18:02:19.496Z,94839.78
2022-07-31T18:05:24.206Z,94835.59
2022-07-31T18:08:29.396Z,94843.69
2022-07-31T18:11:32.602Z,94849.66
2022-07-31T18:14:35.695Z,94845.66
2022-07-31T18:17:41.377Z,94855.38
2022-07-31T18:20:46.550Z,94856.31
2022-07-31T18:23:49.788Z,94855.53
2022-07-31T18:26:54.677Z,94867.50
2022-07-31T18:29:58.530Z,94874.69
2022-07-31T18:33:02.026Z,94869.53
2022-07-31T18:36:06.890Z,94874.72
2022-07-31T18:39:10.063Z,94876.22
2022-07-31T18:42:13.174Z,94877.47
2022-07-31T18:45:16.518Z,94888.72
2022-07-31T18:48:21.162Z,94889.63
2022-07-31T18:51:25.913Z,94893.88
2022-07-31T18:54:29.091Z,94899.56
2022-07-31T18:57:32.257Z,94900.81
2022-07-31T19:00:35.747Z,94884.31
2022-07-31T19:03:39.257Z,94894.66
2022-07-31T19:06:44.683Z,94906.56
2022-07-31T19:09:47.825Z,94895.63
2022-07-31T19:12:51.196Z,94907.00
2022-07-31T19:15:54.534Z,94905.31
2022-07-31T19:18:57.624Z,94906.53
2022-07-31T19:22:02.710Z,94910.34
2022-07-31T19:25:06.759Z,94913.16
2022-07-31T19:28:11.562Z,94922.06
2022-07-31T19:31:18.802Z,94919.53
2022-07-31T19:34:21.981Z,94918.44
2022-07-31T19:37:26.995Z,94917.75
2022-07-31T19:40:33.192Z,94899.47
2022-07-31T19:43:36.424Z,94922.06
2022-07-31T19:46:39.458Z,94922.81
2022-07-31T19:49:44.807Z,94918.47
2022-07-31T19:52:49.402Z,94928.72
2022-07-31T19:55:52.482Z,94888.94
2022-07-31T19:58:55.634Z,94935.25
2022-07-31T20:01:58.758Z,94940.28
2022-07-31T20:05:01.889Z,94956.03
2022-07-31T20:08:06.532Z,94953.88
2022-07-31T20:11:09.916Z,94947.72
2022-07-31T20:14:12.982Z,94955.56
2022-07-31T20:17:16.098Z,94953.03
2022-07-31T20:20:19.138Z,94952.34
2022-07-31T20:23:23.621Z,94957.19
2022-07-31T20:26:27.105Z,94948.44
2022-07-31T20:29:30.203Z,94946.34
2022-07-31T20:32:33.473Z,94952.94
2022-07-31T20:35:49.296Z,94949.34
2022-07-31T20:38:54.507Z,94962.31
2022-07-31T20:41:57.748Z,94954.03
2022-07-31T20:45:00.982Z,94947.97
2022-07-31T20:48:04.042Z,94954.66
2022-07-31T20:51:09.181Z,94938.59
2022-07-31T20:54:13.629Z,94950.31
2022-07-31T20:57:17.432Z,94955.38
2022-07-31T21:00:20.825Z,94961.78
2022-07-31T21:03:23.919Z,94955.25
2022-07-31T21:06:27.034Z,94967.56
2022-07-31T21:09:32.250Z,94965.13
2022-07-31T21:12:35.304Z,94962.13
2022-07-31T21:15:42.058Z,94949.25
2022-07-31T21:18:50.595Z,94955.63
2022-07-31T21:21:53.841Z,94963.78
2022-07-31T21:24:58.935Z,94958.66
2022-07-31T21:28:02.739Z,94950.25
2022-07-31T21:31:06.414Z,94963.63
2022-07-31T21:34:09.826Z,94966.09
2022-07-31T21:37:16.207Z,94963.03
2022-07-31T21:40:21.874Z,94955.53
2022-07-31T21:43:25.694Z,94954.19
2022-07-31T21:46:30.435Z,94952.28
2022-07-31T21:49:36.008Z,94935.50
2022-07-31T21:52:39.143Z,94961.50
2022-07-31T21:55:43.660Z,94958.72
2022-07-31T21:58:46.736Z,94957.75
2022-07-31T22:01:57.911Z,94958.66
2022-07-31T22:05:20.875Z,94958.41
2022-07-31T22:08:23.970Z,94956.06
2022-07-31T22:11:30.573Z,94959.44
2022-07-31T22:14:33.626Z,94953.38
2022-07-31T22:17:36.718Z,94962.19
2022-07-31T22:20:40.483Z,94956.41
2022-07-31T22:23:43.879Z,94959.19
2022-07-31T22:27:02.715Z,94961.22
2022-07-31T22:30:07.315Z,94959.28
2022-07-31T22:33:10.669Z,94966.47
2022-07-31T22:36:14.033Z,94961.75
2022-07-31T22:39:20.243Z,94951.81
2022-07-31T22:42:25.087Z,94961.28
2022-07-31T22:45:28.458Z,94962.41
2022-07-31T22:48:35.673Z,94951.22
2022-07-31T22:51:40.821Z,94948.78
2022-07-31T22:54:46.417Z,94943.09
2022-07-31T22:57:50.855Z,94954.38
2022-07-31T23:00:53.933Z,94948.13
2022-07-31T23:03:56.997Z,94950.34
2022-07-31T23:07:00.029Z,94939.06
2022-07-31T23:10:03.191Z,94942.19
2022-07-31T23:13:07.643Z,94939.19
2022-07-31T23:16:10.714Z,94938.97
2022-07-31T23:19:13.818Z,94948.13
2022-07-31T23:22:18.446Z,94949.47
2022-07-31T23:25:23.215Z,94947.28
2022-07-31T23:28:27.732Z,94950.94
2022-07-31T23:31:30.830Z,94956.63
2022-07-31T23:34:34.748Z,94952.13
2022-07-31T23:37:37.828Z,94947.19
2022-07-31T23:40:40.901Z,94952.47
2022-07-31T23:43:54.328Z,94944.88
2022-07-31T23:46:58.473Z,94949.19
2022-07-31T23:50:04.599Z,94939.59
2022-07-31T23:53:07.758Z,94946.78
2022-07-31T23:56:13.191Z,94943.84
2022-07-31T23:59:24.005Z,94937.59
